Almond, WI (54909)

4:47 AM CST on February 09, 2016 (GMT -0600)
KWIWAUPA3 | | Change Station
CLOSE
Current Station
Personal Weather Station
Location: Waupaca, WI
Elevation: 900 ft
Nearby Weather Stations

Elev 900 ft 44.38 °N, 89.23 °W | Updated 3 minutes ago

Overcast
Overcast
8.5 °F
Feels Like 8 °F
N
1.0
Wind Variable Wind from West
Gusts 1.0 mph

Today
High -- | Low -- °F
--% Chance of Precip.
Yesterday
High -- | Low -- °F
Precip. -- in
Pressure 29.81 in
Visibility 10.0 miles
Clouds Scattered Clouds 4400 ft
Scattered Clouds 5000 ft
Windchill 8 °F
Dew Point 4 °F
Humidity 81%
Rainfall 0.00 in
Snow Depth Not available.
7:06 AM 5:17 PM
New Moon, 1% visible
METAR KPCZ 091035Z AUTO 30008KT 10SM -SN SCT044 SCT050 M11/M15 A2981 RMK AO2 T11091150
Pressure 29.81 in
Visibility 10.0 miles
Clouds Scattered Clouds 4400 ft
Scattered Clouds 5000 ft
Windchill 8 °F
Dew Point 4 °F
Humidity 81%
Rainfall 0.00 in
Snow Depth Not available.
7:06 AM 5:17 PM
New Moon, 1% visible
METAR KPCZ 091035Z AUTO 30008KT 10SM -SN SCT044 SCT050 M11/M15 A2981 RMK AO2 T11091150

10-Day Weather Forecast

Almanac

Astronomy

Feb. 09, 2016 Rise Set
Actual Time
Civil Twilight
Nautical Twilight
Astronomical Twilight
Moon
Length of Visible Light
Length of Day
Tomorrow will be .
, % of the Moon is Illuminated

Today's Extremes

State Highs State Lows

Community

WunderPhotos

Upload Photos

1,891,565 photos uploaded!

WunderBlog® & News

Nearby

Air Quality

  Air Quality AQ Index Pollutant
Not available.

Snow Depth

Station Depth Elevation

Earthquake Activity

City Distance Mag. Time & Date
Minimum magnitude displayed is 2.5.

Coastal Water Temperatures

Place Temperature

Stations

Nearby Weather Stations

Station Location Temp. Windchill Dew Point Humidity Wind Precip. Elev Updated Type
                   

Watches & Warnings

There are currently no watches in effect.